This is the latest recevied weather packets stored in our database for station/object OE5HCE. If no packets are shown the sender has not sent any weather packets the latest 1 day(s).
| Time | Temp. | Humidity | Pressure | Rain* | Wind** | Luminosity | Snow |
|---|---|---|---|---|---|---|---|
| 1778022052 | 13.89° C | 75% | 1008.9 hPa | 0 mm | 0 m/s | 0 W/m² | - |
| 1778021170 | 13.89° C | 72% | 1008.6 hPa | 0 mm | 0 m/s | 0 W/m² | - |
| 1778020241 | 13.33° C | 68% | 1008.4 hPa | 0 mm | 0 m/s | 0 W/m² | - |
| 1778019345 | 13.33° C | 67% | 1008 hPa | 0 mm | 0 m/s | 0 W/m² | - |
| 1778018451 | 13.33° C | 68% | 1007.9 hPa | 0 mm | 0 m/s | 0 W/m² | - |
| 1778017534 | 13.33° C | 68% | 1007.7 hPa | 0 mm | 0 m/s | 0 W/m² | - |
| 1778016638 | 13.33° C | 69% | 1007.5 hPa | 0 mm | 0 m/s | 0 W/m² | - |
| 1778015738 | 13.89° C | 69% | 1007.2 hPa | 0 mm | 0 m/s | 0 W/m² | - |
| 1778014841 | 13.89° C | 70% | 1007.1 hPa | 0 mm | 0 m/s | 0 W/m² | - |
| 1778013931 | 14.44° C | 72% | 1006.9 hPa | 0 mm | 0 m/s | 0 W/m² | - |
| 1778013030 | 14.44° C | 72% | 1006.8 hPa | 0 mm | 0 m/s | 0 W/m² | - |
| 1778012129 | 14.44° C | 73% | 1006.8 hPa | 0 mm | 0 m/s | 0 W/m² | - |
| 1778011228 | 14.44° C | 72% | 1006.5 hPa | 0 mm | 0 m/s | 0 W/m² | - |
| 1778010328 | 14.44° C | 72% | 1006.3 hPa | 0 mm | 0 m/s | 0 W/m² | - |
| 1778009434 | 14.44° C | 72% | 1006.1 hPa | 0 mm | 0 m/s | 0 W/m² | - |
| 1778008527 | 14.44° C | 71% | 1005.9 hPa | 0 mm | 0 m/s | 0 W/m² | - |
| 1778007626 | 14.44° C | 70% | 1005.8 hPa | 1.02 mm | 0 m/s | 0 W/m² | - |
| 1778006727 | 14.44° C | 69% | 1005.5 hPa | 2.29 mm | 0 m/s | 0 W/m² | - |
| 1778005835 | 14.44° C | 69% | 1005.2 hPa | 2.29 mm | 0 m/s | 0 W/m² | - |
| 1778004928 | 15° C | 75% | 1004.9 hPa | 2.29 mm | 0 m/s | 0 W/m² | - |
| 1778004025 | 15.56° C | 77% | 1004.8 hPa | 1.27 mm | 0 m/s | 0 W/m² | - |
| 1778003123 | 16.67° C | 72% | 1004.5 hPa | 0 mm | 0 m/s | 0 W/m² | - |
| 1778002221 | 18.89° C | 61% | 1004.1 hPa | 0 mm | 0 m/s | 0 W/m² | - |
| 1778001321 | 23.89° C | 44% | 1003.6 hPa | 0 mm | 0 m/s | 0 W/m² | - |
| 1778000420 | 24.44° C | 43% | 1003 hPa | 0 mm | 0 m/s | 12 W/m² | - |
* Rain latest hour (hover to see other rain measurements)
** Current wind speed in m/s (hover to see current wind gust speed)